Time;durP1;ratioP1;P1;durP2;ratioP2;P2;SDS_P1;SDS_P2;PMS_P1;PMS_P2;Temp;Humidity;BMP_temperature;BMP_pressure;BME280_temperature;BME280_humidity;BME280_pressure;Samples;Min_cycle;Max_cycle;Signal;HPM_P1;HPM_P2
2024/01/19 00:02:04;;;;;;;0.10;0.10;;;;;;;;;;5058517;28;20029;-83
2024/01/19 00:04:56;;;;;;;0.10;0.10;;;;;;;;;;5040316;28;20488;-83
2024/01/19 00:07:34;;;;;;;0.10;0.10;;;;;;;;;;5039670;28;20041;-82
2024/01/19 00:09:59;;;;;;;0.10;0.10;;;;;;;;;;5036827;28;20029;-83
2024/01/19 00:12:29;;;;;;;0.10;0.10;;;;;;;;;;5038881;28;20735;-83
2024/01/19 00:14:58;;;;;;;0.10;0.10;;;;;;;;;;5039083;28;20123;-84
2024/01/19 00:17:24;;;;;;;0.10;0.10;;;;;;;;;;5064317;28;20507;-85
2024/01/19 00:20:08;;;;;;;0.10;0.10;;;;;;;;;;5059542;28;20036;-81
2024/01/19 00:22:39;;;;;;;0.10;0.10;;;;;;;;;;5045865;28;20112;-84
2024/01/19 00:25:10;;;;;;;0.10;0.10;;;;;;;;;;5038369;28;20036;-84
2024/01/19 00:28:06;;;;;;;0.10;0.10;;;;;;;;;;5053997;28;20488;-83
2024/01/19 00:30:36;;;;;;;0.10;0.10;;;;;;;;;;5043197;28;20046;-86
2024/01/19 00:33:02;;;;;;;0.10;0.10;;;;;;;;;;5037492;28;20024;-85
2024/01/19 00:35:35;;;;;;;0.10;0.10;;;;;;;;;;5059616;28;20506;-84
2024/01/19 00:38:01;;;;;;;0.10;0.10;;;;;;;;;;5036861;28;21289;-80
2024/01/19 00:40:29;;;;;;;0.10;0.10;;;;;;;;;;5037004;28;20071;-82
2024/01/19 00:43:08;;;;;;;0.10;0.10;;;;;;;;;;5050704;28;20022;-80
2024/01/19 00:45:38;;;;;;;2.17;2.08;;;;;;;;;;5038477;28;20110;-81
2024/01/19 00:48:10;;;;;;;0.10;0.10;;;;;;;;;;5041450;28;20029;-83
2024/01/19 00:50:53;;;;;;;0.10;0.10;;;;;;;;;;5036872;28;20031;-81
2024/01/19 00:53:19;;;;;;;0.10;0.10;;;;;;;;;;5039705;28;20444;-85
2024/01/19 00:55:47;;;;;;;0.10;0.10;;;;;;;;;;5039269;28;20024;-83
2024/01/19 00:58:15;;;;;;;0.10;0.10;;;;;;;;;;5063399;28;20024;-84
2024/01/19 01:00:43;;;;;;;0.10;0.10;;;;;;;;;;5038641;28;20112;-80
2024/01/19 01:03:09;;;;;;;0.10;0.10;;;;;;;;;;5039978;28;20047;-85
2024/01/19 01:05:58;;;;;;;0.10;0.10;;;;;;;;;;5038394;28;20115;-80
2024/01/19 01:08:47;;;;;;;0.20;0.20;;;;;;;;;;5035783;28;20053;-84
2024/01/19 01:11:15;;;;;;;0.10;0.10;;;;;;;;;;5023396;28;20052;-81
2024/01/19 01:13:48;;;;;;;0.10;0.10;;;;;;;;;;5041423;28;20029;-83
2024/01/19 01:16:39;;;;;;;0.10;0.10;;;;;;;;;;5043637;28;20078;-82
2024/01/19 01:19:10;;;;;;;0.10;0.10;;;;;;;;;;5061996;28;20055;-83
2024/01/19 01:21:45;;;;;;;0.20;0.20;;;;;;;;;;5056379;28;20365;-83
2024/01/19 01:24:24;;;;;;;0.10;0.10;;;;;;;;;;5041931;28;20054;-81
2024/01/19 01:26:54;;;;;;;0.10;0.10;;;;;;;;;;5059949;28;20025;-83
2024/01/19 01:29:35;;;;;;;0.10;0.10;;;;;;;;;;5040790;28;20040;-82
2024/01/19 01:32:03;;;;;;;0.00;0.00;;;;;;;;;;5044833;28;20017;-82
2024/01/19 01:34:34;;;;;;;0.10;0.10;;;;;;;;;;5060104;28;20025;-85
2024/01/19 01:37:31;;;;;;;0.10;0.10;;;;;;;;;;5037843;28;20086;-83
2024/01/19 01:39:58;;;;;;;0.10;0.10;;;;;;;;;;5062800;28;20544;-83
2024/01/19 01:42:24;;;;;;;0.10;0.10;;;;;;;;;;5042087;28;20029;-81
2024/01/19 01:44:56;;;;;;;0.10;0.10;;;;;;;;;;5059037;28;20817;-83
2024/01/19 01:47:21;;;;;;;0.10;0.10;;;;;;;;;;5060862;28;20510;-83
2024/01/19 01:49:48;;;;;;;0.10;0.10;;;;;;;;;;5061014;28;20032;-81
2024/01/19 01:52:19;;;;;;;0.00;0.00;;;;;;;;;;5041302;28;20060;-81
2024/01/19 01:54:48;;;;;;;0.10;0.10;;;;;;;;;;5049327;28;20036;-82
2024/01/19 01:57:20;;;;;;;0.10;0.10;;;;;;;;;;5057976;28;20182;-81
2024/01/19 01:59:50;;;;;;;0.00;0.00;;;;;;;;;;5036863;28;20066;-82
2024/01/19 02:02:16;;;;;;;0.08;0.08;;;;;;;;;;5036535;28;20029;-81
2024/01/19 02:04:51;;;;;;;0.10;0.10;;;;;;;;;;5059450;28;20053;-83
2024/01/19 02:07:19;;;;;;;0.10;0.10;;;;;;;;;;5034328;28;20424;-80
2024/01/19 02:10:03;;;;;;;0.00;0.00;;;;;;;;;;5059407;28;20035;-83
2024/01/19 02:12:44;;;;;;;;;;;;;;;;;;;;;
2024/01/19 02:15:43;;;;;;;0.10;0.10;;;;;;;;;;5053143;28;20033;-82
2024/01/19 02:18:12;;;;;;;0.10;0.10;;;;;;;;;;5024734;28;20127;-84
2024/01/19 02:20:48;;;;;;;0.00;0.00;;;;;;;;;;5041806;28;20115;-82
2024/01/19 02:23:35;;;;;;;0.17;0.17;;;;;;;;;;5057023;28;20028;-84
2024/01/19 02:26:03;;;;;;;0.10;0.10;;;;;;;;;;5058511;28;20036;-83
2024/01/19 02:28:51;;;;;;;0.10;0.10;;;;;;;;;;5049043;28;20047;-80
2024/01/19 02:31:20;;;;;;;0.10;0.10;;;;;;;;;;5062538;28;20408;-80
2024/01/19 02:33:48;;;;;;;0.10;0.10;;;;;;;;;;5035559;28;20031;-84
2024/01/19 02:36:23;;;;;;;0.10;0.10;;;;;;;;;;5036691;28;20028;-82
2024/01/19 02:38:52;;;;;;;0.10;0.10;;;;;;;;;;5049075;28;20078;-82
2024/01/19 02:41:21;;;;;;;0.10;0.10;;;;;;;;;;5039218;28;20369;-83
2024/01/19 02:43:55;;;;;;;;;;;;;;;;;;5058950;28;20032;-83
2024/01/19 02:46:25;;;;;;;0.10;0.10;;;;;;;;;;5045359;28;19913;-80
2024/01/19 02:49:20;;;;;;;0.10;0.10;;;;;;;;;;5056315;28;20060;-84
2024/01/19 02:52:00;;;;;;;0.00;0.00;;;;;;;;;;5043296;28;20029;-81
2024/01/19 02:54:33;;;;;;;0.10;0.10;;;;;;;;;;5060715;28;20070;-83
2024/01/19 02:57:04;;;;;;;0.10;0.10;;;;;;;;;;5039204;28;20447;-80
2024/01/19 02:59:30;;;;;;;0.10;0.10;;;;;;;;;;5040554;28;20370;-84
2024/01/19 03:01:55;;;;;;;0.10;0.10;;;;;;;;;;5055237;28;20036;-83
2024/01/19 03:04:36;;;;;;;;;;;;;;;;;;;;;
2024/01/19 03:07:17;;;;;;;0.05;0.05;;;;;;;;;;5056234;28;20029;-84
2024/01/19 03:09:54;;;;;;;0.00;0.00;;;;;;;;;;5058445;28;20060;-80
2024/01/19 03:12:29;;;;;;;0.10;0.10;;;;;;;;;;5036553;28;20031;-80
2024/01/19 03:14:55;;;;;;;0.10;0.10;;;;;;;;;;5043516;28;20044;-83
2024/01/19 03:17:27;;;;;;;0.10;0.10;;;;;;;;;;5054261;28;20037;-82
2024/01/19 03:19:55;;;;;;;0.10;0.10;;;;;;;;;;5059667;28;20479;-81
2024/01/19 03:22:28;;;;;;;0.10;0.10;;;;;;;;;;5057503;28;20403;-81
2024/01/19 03:24:57;;;;;;;0.10;0.10;;;;;;;;;;5037702;28;20028;-82
2024/01/19 03:27:33;;;;;;;0.10;0.10;;;;;;;;;;5059417;28;20116;-81
2024/01/19 03:30:13;;;;;;;0.10;0.10;;;;;;;;;;5045918;28;20431;-83
2024/01/19 03:32:42;;;;;;;0.10;0.10;;;;;;;;;;5035287;28;20017;-81
2024/01/19 03:35:37;;;;;;;0.10;0.10;;;;;;;;;;5041911;28;20037;-81
2024/01/19 03:38:14;;;;;;;0.10;0.10;;;;;;;;;;5041220;28;20063;-80
2024/01/19 03:40:52;;;;;;;0.10;0.10;;;;;;;;;;5035808;28;20035;-79
2024/01/19 03:43:19;;;;;;;0.17;0.17;;;;;;;;;;5039359;28;20044;-81
2024/01/19 03:45:53;;;;;;;0.10;0.10;;;;;;;;;;5058531;28;20539;-84
2024/01/19 03:48:21;;;;;;;0.10;0.10;;;;;;;;;;5039820;28;20036;-81
2024/01/19 03:54:04;;;;;;;0.10;0.10;;;;;;;;;;5063310;28;20048;-82
2024/01/19 03:56:43;;;;;;;0.00;0.00;;;;;;;;;;5036945;28;20039;-86
2024/01/19 03:59:14;;;;;;;0.10;0.10;;;;;;;;;;5040490;28;20484;-82
2024/01/19 04:01:51;;;;;;;0.10;0.10;;;;;;;;;;5057818;28;20028;-82
2024/01/19 04:04:40;;;;;;;0.10;0.10;;;;;;;;;;5057249;28;20174;-81
2024/01/19 04:07:10;;;;;;;0.10;0.10;;;;;;;;;;5055961;28;20115;-83
2024/01/19 04:09:54;;;;;;;0.15;0.15;;;;;;;;;;5040118;28;20480;-82
2024/01/19 04:12:20;;;;;;;0.17;0.17;;;;;;;;;;5038763;28;20150;-80
2024/01/19 04:15:14;;;;;;;0.20;0.20;;;;;;;;;;5035349;28;20534;-81
2024/01/19 04:18:15;;;;;;;0.10;0.10;;;;;;;;;;5036905;28;20032;-83
2024/01/19 04:23:31;;;;;;;0.10;0.10;;;;;;;;;;5052775;28;20028;-83
2024/01/19 04:26:06;;;;;;;0.10;0.10;;;;;;;;;;5056055;28;20024;-80
2024/01/19 04:28:32;;;;;;;0.10;0.10;;;;;;;;;;5058056;28;20036;-81
2024/01/19 04:31:00;;;;;;;0.10;0.10;;;;;;;;;;5057236;28;20027;-81
2024/01/19 04:33:33;;;;;;;0.10;0.10;;;;;;;;;;5038285;28;20070;-79
2024/01/19 04:36:02;;;;;;;0.15;0.15;;;;;;;;;;5033313;28;20029;-81
2024/01/19 04:38:27;;;;;;;0.10;0.10;;;;;;;;;;5043007;28;20502;-82
2024/01/19 04:40:59;;;;;;;0.10;0.10;;;;;;;;;;5053177;28;20476;-81
2024/01/19 04:43:24;;;;;;;0.15;0.15;;;;;;;;;;5054369;28;20025;-80
2024/01/19 04:46:15;;;;;;;;;;;;;;;;;;;;;
2024/01/19 04:48:56;;;;;;;0.17;0.17;;;;;;;;;;5057891;28;20017;-80
2024/01/19 04:51:27;;;;;;;0.10;0.10;;;;;;;;;;5055768;28;20036;-79
2024/01/19 04:53:59;;;;;;;0.20;0.20;;;;;;;;;;5040743;28;20033;-82
2024/01/19 04:56:25;;;;;;;0.10;0.10;;;;;;;;;;5038329;28;20029;-81
2024/01/19 04:58:58;;;;;;;0.03;0.03;;;;;;;;;;5055496;28;20031;-81
2024/01/19 05:01:26;;;;;;;0.00;0.00;;;;;;;;;;5063387;28;20017;-80
2024/01/19 05:03:54;;;;;;;0.10;0.10;;;;;;;;;;5046358;28;20044;-81
2024/01/19 05:06:20;;;;;;;0.00;0.00;;;;;;;;;;5056054;28;20851;-82
2024/01/19 05:08:49;;;;;;;0.05;0.05;;;;;;;;;;5056335;28;20037;-82
2024/01/19 05:11:14;;;;;;;0.10;0.10;;;;;;;;;;5055070;28;20021;-81
2024/01/19 05:13:41;;;;;;;0.10;0.10;;;;;;;;;;5055218;28;20048;-79
2024/01/19 05:16:08;;;;;;;0.10;0.10;;;;;;;;;;5053170;28;20045;-80
2024/01/19 05:18:40;;;;;;;0.10;0.10;;;;;;;;;;5051663;28;20025;-79
2024/01/19 05:21:09;;;;;;;0.10;0.10;;;;;;;;;;5046370;28;20039;-82
2024/01/19 05:23:37;;;;;;;0.10;0.10;;;;;;;;;;5053997;28;20494;-80
2024/01/19 05:26:08;;;;;;;0.10;0.10;;;;;;;;;;5049421;28;20032;-80
2024/01/19 05:28:39;;;;;;;0.00;0.00;;;;;;;;;;5049372;28;20040;-83
2024/01/19 05:31:20;;;;;;;0.00;0.00;;;;;;;;;;5055455;28;20037;-81
2024/01/19 05:33:49;;;;;;;0.03;0.03;;;;;;;;;;5059685;28;20028;-80
2024/01/19 05:36:17;;;;;;;0.10;0.10;;;;;;;;;;5059364;28;20033;-80
2024/01/19 05:38:53;;;;;;;;;;;;;;;;;;;;;
2024/01/19 05:41:22;;;;;;;0.10;0.10;;;;;;;;;;5051308;28;20037;-82
2024/01/19 05:43:47;;;;;;;0.10;0.10;;;;;;;;;;5053849;28;20021;-81
2024/01/19 05:46:28;;;;;;;0.10;0.10;;;;;;;;;;5057369;28;20400;-80
2024/01/19 05:49:03;;;;;;;0.10;0.10;;;;;;;;;;5049983;28;20033;-82
2024/01/19 05:51:29;;;;;;;0.10;0.10;;;;;;;;;;5058286;28;20063;-80
2024/01/19 05:53:54;;;;;;;0.10;0.10;;;;;;;;;;5054271;28;20071;-82
2024/01/19 05:56:33;;;;;;;0.10;0.10;;;;;;;;;;5056239;28;20024;-80
2024/01/19 05:59:08;;;;;;;0.08;0.08;;;;;;;;;;5053658;28;20025;-81
2024/01/19 06:01:47;;;;;;;0.10;0.10;;;;;;;;;;5054876;28;20443;-84
2024/01/19 06:04:18;;;;;;;0.00;0.00;;;;;;;;;;5054630;28;20055;-82
2024/01/19 06:07:02;;;;;;;0.10;0.10;;;;;;;;;;5056745;28;20041;-80
2024/01/19 06:09:28;;;;;;;0.10;0.10;;;;;;;;;;5054111;28;20024;-80
2024/01/19 06:11:54;;;;;;;0.20;0.20;;;;;;;;;;5051750;28;20048;-80
2024/01/19 06:14:20;;;;;;;0.10;0.10;;;;;;;;;;5047792;28;20388;-80
2024/01/19 06:16:45;;;;;;;0.10;0.10;;;;;;;;;;5054874;28;20025;-82
2024/01/19 06:19:11;;;;;;;0.10;0.10;;;;;;;;;;5063435;28;20039;-81
2024/01/19 06:21:36;;;;;;;0.10;0.10;;;;;;;;;;5049975;28;20028;-78
2024/01/19 06:24:01;;;;;;;0.10;0.10;;;;;;;;;;5052284;28;20028;-80
2024/01/19 06:26:32;;;;;;;0.10;0.10;;;;;;;;;;5057518;28;20039;-83
2024/01/19 06:28:58;;;;;;;0.10;0.10;;;;;;;;;;5052703;28;20487;-81
2024/01/19 06:31:23;;;;;;;0.10;0.10;;;;;;;;;;5056083;28;20111;-80
2024/01/19 06:33:49;;;;;;;0.10;0.10;;;;;;;;;;5051942;28;20116;-81
2024/01/19 06:36:14;;;;;;;0.13;0.13;;;;;;;;;;5055708;28;20496;-80
2024/01/19 06:38:43;;;;;;;0.10;0.10;;;;;;;;;;5059245;28;20024;-83
2024/01/19 06:41:08;;;;;;;0.10;0.10;;;;;;;;;;5054821;28;20352;-83
2024/01/19 06:43:33;;;;;;;0.10;0.10;;;;;;;;;;5056556;28;20143;-80
2024/01/19 06:45:59;;;;;;;0.10;0.10;;;;;;;;;;5057072;28;20037;-80
2024/01/19 06:48:24;;;;;;;0.10;0.10;;;;;;;;;;5056049;28;20062;-79
2024/01/19 06:50:50;;;;;;;0.15;0.15;;;;;;;;;;5062943;28;20096;-81
2024/01/19 06:53:15;;;;;;;0.10;0.10;;;;;;;;;;5050448;28;20036;-79
2024/01/19 06:55:41;;;;;;;0.10;0.10;;;;;;;;;;5054260;28;20075;-80
2024/01/19 06:58:06;;;;;;;0.10;0.10;;;;;;;;;;5054724;28;20025;-83
2024/01/19 07:00:32;;;;;;;0.10;0.10;;;;;;;;;;5048941;28;20431;-84
2024/01/19 07:02:59;;;;;;;0.00;0.00;;;;;;;;;;5047720;28;20436;-79
2024/01/19 07:05:25;;;;;;;0.00;0.00;;;;;;;;;;5049149;28;20130;-80
2024/01/19 07:07:51;;;;;;;0.10;0.10;;;;;;;;;;5054378;28;20531;-82
2024/01/19 07:10:21;;;;;;;0.10;0.10;;;;;;;;;;5050716;28;20040;-78
2024/01/19 07:12:47;;;;;;;0.10;0.10;;;;;;;;;;5051934;28;20035;-78
2024/01/19 07:15:12;;;;;;;0.10;0.10;;;;;;;;;;5051713;28;20380;-81
2024/01/19 07:17:37;;;;;;;0.10;0.10;;;;;;;;;;5048862;28;20036;-79
2024/01/19 07:20:05;;;;;;;0.10;0.10;;;;;;;;;;5048661;28;20477;-81
2024/01/19 07:22:30;;;;;;;0.10;0.10;;;;;;;;;;5054683;28;20024;-81
2024/01/19 07:25:05;;;;;;;0.10;0.10;;;;;;;;;;5051142;28;20039;-78
2024/01/19 07:27:30;;;;;;;0.00;0.00;;;;;;;;;;5055850;28;20480;-80
2024/01/19 07:29:56;;;;;;;0.10;0.10;;;;;;;;;;5061046;28;20035;-81
2024/01/19 07:32:24;;;;;;;0.10;0.10;;;;;;;;;;5057171;28;20350;-79
2024/01/19 07:34:50;;;;;;;0.10;0.10;;;;;;;;;;5051940;28;20037;-80
2024/01/19 07:37:15;;;;;;;0.10;0.10;;;;;;;;;;5057973;28;20036;-82
2024/01/19 07:39:41;;;;;;;0.10;0.10;;;;;;;;;;5054188;28;20020;-79
2024/01/19 07:42:06;;;;;;;0.20;0.20;;;;;;;;;;5052390;28;20021;-79
2024/01/19 07:44:32;;;;;;;0.10;0.10;;;;;;;;;;5059252;28;20035;-82
2024/01/19 07:46:57;;;;;;;0.10;0.10;;;;;;;;;;5053332;28;20530;-81
2024/01/19 07:49:22;;;;;;;0.03;0.03;;;;;;;;;;5057201;28;20078;-80
2024/01/19 07:51:49;;;;;;;0.10;0.10;;;;;;;;;;5058601;28;20139;-80
2024/01/19 07:54:14;;;;;;;0.10;0.10;;;;;;;;;;5063883;28;20476;-81
2024/01/19 07:56:40;;;;;;;0.00;0.00;;;;;;;;;;5057124;28;20024;-80
2024/01/19 07:59:07;;;;;;;0.10;0.10;;;;;;;;;;5061417;28;20036;-80
2024/01/19 08:01:32;;;;;;;0.10;0.10;;;;;;;;;;5056630;28;20063;-81
2024/01/19 08:03:58;;;;;;;0.10;0.10;;;;;;;;;;5058740;28;20071;-82
2024/01/19 08:06:23;;;;;;;0.10;0.10;;;;;;;;;;5063296;28;20560;-79
2024/01/19 08:08:48;;;;;;;0.08;0.08;;;;;;;;;;5057634;28;20521;-83
2024/01/19 08:11:14;;;;;;;0.10;0.10;;;;;;;;;;5059280;28;20032;-81
2024/01/19 08:13:39;;;;;;;0.00;0.00;;;;;;;;;;5060412;28;20114;-78
2024/01/19 08:16:08;;;;;;;0.10;0.10;;;;;;;;;;5055012;28;20456;-80
2024/01/19 08:18:56;;;;;;;0.00;0.00;;;;;;;;;;5059960;28;20024;-83
2024/01/19 08:21:22;;;;;;;0.10;0.10;;;;;;;;;;5058300;28;20055;-83
2024/01/19 08:23:48;;;;;;;0.10;0.10;;;;;;;;;;5053996;28;20041;-83
2024/01/19 08:26:13;;;;;;;0.10;0.10;;;;;;;;;;5059305;28;20036;-78
2024/01/19 08:28:39;;;;;;;0.10;0.10;;;;;;;;;;5062691;28;20031;-81
2024/01/19 08:31:04;;;;;;;0.10;0.10;;;;;;;;;;5058720;28;20465;-78
2024/01/19 08:33:30;;;;;;;0.00;0.00;;;;;;;;;;5062258;28;20062;-80
2024/01/19 08:35:56;;;;;;;0.10;0.10;;;;;;;;;;5051323;28;20110;-79
2024/01/19 08:38:22;;;;;;;0.10;0.10;;;;;;;;;;5053032;28;20364;-81
2024/01/19 08:40:47;;;;;;;0.05;0.05;;;;;;;;;;5056323;28;20035;-78
2024/01/19 08:43:13;;;;;;;0.10;0.10;;;;;;;;;;5057669;28;20049;-80
2024/01/19 08:45:41;;;;;;;0.10;0.10;;;;;;;;;;5056978;28;20037;-80
2024/01/19 08:48:07;;;;;;;0.00;0.00;;;;;;;;;;5060375;28;20476;-79
2024/01/19 08:50:32;;;;;;;0.10;0.10;;;;;;;;;;5057016;28;20083;-79
2024/01/19 08:52:58;;;;;;;0.00;0.00;;;;;;;;;;5058558;28;20052;-83
2024/01/19 08:55:23;;;;;;;0.10;0.10;;;;;;;;;;5058712;28;20025;-83
2024/01/19 08:57:49;;;;;;;0.08;0.08;;;;;;;;;;5058652;28;20064;-81
2024/01/19 09:00:15;;;;;;;0.10;0.10;;;;;;;;;;5059414;28;20032;-79
2024/01/19 09:02:41;;;;;;;0.10;0.10;;;;;;;;;;5060957;28;20076;-82
2024/01/19 09:05:11;;;;;;;0.03;0.03;;;;;;;;;;5054859;28;20048;-81
2024/01/19 09:07:36;;;;;;;;;;;;;;;;;;5054376;28;20029;-80
2024/01/19 09:10:02;;;;;;;0.00;0.00;;;;;;;;;;5054100;28;19916;-84
2024/01/19 09:12:28;;;;;;;0.10;0.10;;;;;;;;;;5060304;28;20098;-83
2024/01/19 09:14:54;;;;;;;0.00;0.00;;;;;;;;;;5057810;28;20118;-81
2024/01/19 09:17:22;;;;;;;0.00;0.00;;;;;;;;;;5055949;28;20056;-80
2024/01/19 09:19:47;;;;;;;0.08;0.08;;;;;;;;;;5059438;28;20025;-79
2024/01/19 09:22:13;;;;;;;0.00;0.00;;;;;;;;;;5060106;28;20040;-77
2024/01/19 09:24:38;;;;;;;0.10;0.10;;;;;;;;;;5060622;28;20441;-81
2024/01/19 09:27:04;;;;;;;0.00;0.00;;;;;;;;;;5054618;28;20465;-78
2024/01/19 09:29:29;;;;;;;0.00;0.00;;;;;;;;;;5052170;28;20032;-79
2024/01/19 09:31:55;;;;;;;0.00;0.00;;;;;;;;;;5054136;28;20668;-80
2024/01/19 09:34:20;;;;;;;0.00;0.00;;;;;;;;;;5059935;28;20033;-81
2024/01/19 09:36:46;;;;;;;0.00;0.00;;;;;;;;;;5060521;28;20033;-79
2024/01/19 09:39:11;;;;;;;0.00;0.00;;;;;;;;;;5057889;28;20033;-82
2024/01/19 09:41:46;;;;;;;0.00;0.00;;;;;;;;;;5055401;28;20040;-81
2024/01/19 09:44:12;;;;;;;0.00;0.00;;;;;;;;;;5052960;28;20079;-80
2024/01/19 09:47:14;;;;;;;0.10;0.10;;;;;;;;;;5060837;28;20387;-78
2024/01/19 09:50:03;;;;;;;0.00;0.00;;;;;;;;;;5056714;28;20025;-83
2024/01/19 09:52:55;;;;;;;0.08;0.08;;;;;;;;;;5055651;28;20300;-81
2024/01/19 09:55:24;;;;;;;0.00;0.00;;;;;;;;;;5054414;28;20539;-79
2024/01/19 09:57:49;;;;;;;0.00;0.00;;;;;;;;;;5059589;28;20028;-80
2024/01/19 10:00:17;;;;;;;0.10;0.10;;;;;;;;;;5065551;28;20480;-79
2024/01/19 10:02:53;;;;;;;0.10;0.10;;;;;;;;;;5061450;28;20075;-78
2024/01/19 10:05:21;;;;;;;0.00;0.00;;;;;;;;;;5062526;28;20052;-80
2024/01/19 10:07:55;;;;;;;0.00;0.00;;;;;;;;;;5061588;28;20021;-82
2024/01/19 10:10:20;;;;;;;0.00;0.00;;;;;;;;;;5037865;28;20116;-83
2024/01/19 10:12:46;;;;;;;0.00;0.00;;;;;;;;;;5056814;28;20111;-80
2024/01/19 10:15:14;;;;;;;0.00;0.00;;;;;;;;;;5054166;28;20040;-83
2024/01/19 10:17:40;;;;;;;0.00;0.00;;;;;;;;;;5042567;28;20366;-78
2024/01/19 10:20:10;;;;;;;0.00;0.00;;;;;;;;;;5032060;28;20485;-81
2024/01/19 10:22:36;;;;;;;0.00;0.00;;;;;;;;;;5042971;28;20436;-78
2024/01/19 10:25:10;;;;;;;0.00;0.00;;;;;;;;;;5056511;28;20044;-78
2024/01/19 10:27:39;;;;;;;0.00;0.00;;;;;;;;;;5060604;28;20441;-80
2024/01/19 10:30:10;;;;;;;0.00;0.00;;;;;;;;;;5036856;28;20488;-80
2024/01/19 10:32:37;;;;;;;0.00;0.00;;;;;;;;;;5061127;28;20506;-80
2024/01/19 10:35:13;;;;;;;0.00;0.00;;;;;;;;;;5062336;28;20024;-79
2024/01/19 10:37:40;;;;;;;0.00;0.00;;;;;;;;;;5057777;28;20476;-78
2024/01/19 10:40:27;;;;;;;0.00;0.00;;;;;;;;;;5036653;28;20473;-80
2024/01/19 10:42:55;;;;;;;0.00;0.00;;;;;;;;;;5059728;28;20486;-78
2024/01/19 10:45:29;;;;;;;0.05;0.05;;;;;;;;;;5058027;28;20029;-80
2024/01/19 10:47:57;;;;;;;0.00;0.00;;;;;;;;;;5041106;28;20028;-79
2024/01/19 10:50:26;;;;;;;0.00;0.00;;;;;;;;;;5036679;28;20110;-79
2024/01/19 10:52:53;;;;;;;0.00;0.00;;;;;;;;;;5061176;28;20031;-82
2024/01/19 10:55:22;;;;;;;0.00;0.00;;;;;;;;;;5060864;28;20047;-79
2024/01/19 10:57:51;;;;;;;0.00;0.00;;;;;;;;;;5044580;28;20504;-80
2024/01/19 11:00:24;;;;;;;0.00;0.00;;;;;;;;;;5044815;28;20029;-78
2024/01/19 11:02:55;;;;;;;0.05;0.05;;;;;;;;;;5044572;28;20485;-77
2024/01/19 11:05:21;;;;;;;0.00;0.00;;;;;;;;;;5057904;28;20056;-82
2024/01/19 11:07:51;;;;;;;0.00;0.00;;;;;;;;;;5055881;28;20477;-77
2024/01/19 11:10:20;;;;;;;0.00;0.00;;;;;;;;;;5042512;28;20534;-77
2024/01/19 11:12:51;;;;;;;0.00;0.00;;;;;;;;;;5037020;28;20028;-81
2024/01/19 11:15:47;;;;;;;0.00;0.00;;;;;;;;;;5036480;28;20377;-81
2024/01/19 11:18:16;;;;;;;0.03;0.03;;;;;;;;;;5037006;28;20527;-83
2024/01/19 11:20:41;;;;;;;0.00;0.00;;;;;;;;;;5036712;28;20047;-80
2024/01/19 11:23:10;;;;;;;0.00;0.00;;;;;;;;;;5043781;28;20588;-80
2024/01/19 11:25:35;;;;;;;0.10;0.10;;;;;;;;;;5056489;28;20063;-78
2024/01/19 11:28:23;;;;;;;0.00;0.00;;;;;;;;;;5041042;28;20052;-81
2024/01/19 11:31:17;;;;;;;0.00;0.00;;;;;;;;;;5041384;28;20032;-80
2024/01/19 11:33:54;;;;;;;0.00;0.00;;;;;;;;;;5035575;28;20017;-81
2024/01/19 11:36:38;;;;;;;0.00;0.00;;;;;;;;;;5043384;28;20488;-79
2024/01/19 11:39:08;;;;;;;0.00;0.00;;;;;;;;;;5040579;28;20055;-80
2024/01/19 11:41:34;;;;;;;0.00;0.00;;;;;;;;;;5038620;28;20056;-81
2024/01/19 11:44:48;;;;;;;0.00;0.00;;;;;;;;;;5041365;28;20476;-82
2024/01/19 11:47:35;;;;;;;0.00;0.00;;;;;;;;;;5054121;28;20053;-79
2024/01/19 11:50:14;;;;;;;0.00;0.00;;;;;;;;;;5059926;28;20033;-81
2024/01/19 11:52:41;;;;;;;0.00;0.00;;;;;;;;;;5052939;28;20029;-80
2024/01/19 11:55:33;;;;;;;0.00;0.00;;;;;;;;;;5053526;28;20029;-81
2024/01/19 11:58:26;;;;;;;0.00;0.00;;;;;;;;;;5030245;28;20446;-80
2024/01/19 12:00:57;;;;;;;0.55;0.50;;;;;;;;;;5032367;28;20048;-80
2024/01/19 12:03:26;;;;;;;0.95;0.70;;;;;;;;;;5059225;28;20131;-79
2024/01/19 12:05:53;;;;;;;;;;;;;;;;;;5065317;28;20035;-82
2024/01/19 12:08:21;;;;;;;1.98;1.13;;;;;;;;;;5058244;28;20277;-80
2024/01/19 12:10:47;;;;;;;1.27;0.65;;;;;;;;;;5055839;28;20020;-81
2024/01/19 12:13:12;;;;;;;0.47;0.45;;;;;;;;;;5040577;28;20036;-81
2024/01/19 12:15:44;;;;;;;8.73;1.00;;;;;;;;;;5060774;28;20036;-79
2024/01/19 12:18:10;;;;;;;2.53;0.75;;;;;;;;;;5039598;28;20037;-78
2024/01/19 12:20:36;;;;;;;0.80;0.80;;;;;;;;;;5055289;28;20030;-79
2024/01/19 12:23:01;;;;;;;0.95;0.68;;;;;;;;;;5040720;28;20498;-79
2024/01/19 12:25:43;;;;;;;5.13;0.98;;;;;;;;;;5039517;28;20493;-80
2024/01/19 12:28:15;;;;;;;1.02;0.70;;;;;;;;;;5037134;28;20067;-81
2024/01/19 12:30:40;;;;;;;2.70;1.60;;;;;;;;;;5044548;28;20038;-78
2024/01/19 12:33:18;;;;;;;1.15;0.85;;;;;;;;;;5039463;28;20103;-79
2024/01/19 12:35:45;;;;;;;0.98;0.57;;;;;;;;;;5039550;28;20021;-80
2024/01/19 12:38:12;;;;;;;4.95;0.88;;;;;;;;;;5040206;28;20404;-81
2024/01/19 12:40:40;;;;;;;1.23;0.90;;;;;;;;;;5039003;28;20032;-80
2024/01/19 12:43:09;;;;;;;0.60;0.60;;;;;;;;;;5041281;28;20477;-81
2024/01/19 12:45:34;;;;;;;1.17;0.67;;;;;;;;;;5039071;28;20507;-81
2024/01/19 12:48:08;;;;;;;1.58;0.60;;;;;;;;;;5055595;28;20029;-80
2024/01/19 12:50:34;;;;;;;3.10;0.50;;;;;;;;;;5040108;28;20033;-80
2024/01/19 12:53:02;;;;;;;0.50;0.47;;;;;;;;;;5037838;28;20091;-80
2024/01/19 12:55:38;;;;;;;1.48;0.95;;;;;;;;;;5040001;28;20037;-80
2024/01/19 12:58:08;;;;;;;1.20;0.98;;;;;;;;;;5038970;28;20056;-81
2024/01/19 13:00:42;;;;;;;2.65;0.98;;;;;;;;;;5063205;28;20051;-80
2024/01/19 13:03:13;;;;;;;1.80;1.15;;;;;;;;;;5039589;28;20036;-79
2024/01/19 13:05:39;;;;;;;0.57;0.57;;;;;;;;;;5045043;28;20081;-81
2024/01/19 13:08:09;;;;;;;1.27;0.75;;;;;;;;;;5060594;28;20085;-79
2024/01/19 13:10:37;;;;;;;2.08;0.73;;;;;;;;;;5065830;28;20107;-81
2024/01/19 13:13:09;;;;;;;1.13;0.88;;;;;;;;;;5047739;28;20350;-82
2024/01/19 13:15:34;;;;;;;1.85;1.60;;;;;;;;;;5057420;28;20067;-78
2024/01/19 13:18:17;;;;;;;0.55;0.52;;;;;;;;;;5054770;28;20446;-78
2024/01/19 13:20:43;;;;;;;0.65;0.65;;;;;;;;;;5052540;28;20025;-78
2024/01/19 13:23:09;;;;;;;0.63;0.60;;;;;;;;;;5036407;28;20021;-80
2024/01/19 13:25:36;;;;;;;1.73;0.98;;;;;;;;;;5041464;28;20029;-80
2024/01/19 13:28:02;;;;;;;1.75;1.00;;;;;;;;;;5055629;28;20057;-79
2024/01/19 13:30:28;;;;;;;1.08;0.80;;;;;;;;;;5065312;28;20480;-82
2024/01/19 13:33:03;;;;;;;0.63;0.50;;;;;;;;;;5059925;28;20089;-79
2024/01/19 13:35:29;;;;;;;0.95;0.77;;;;;;;;;;5039600;28;20025;-81
2024/01/19 13:37:54;;;;;;;1.85;0.50;;;;;;;;;;5037213;28;20021;-80
2024/01/19 13:40:20;;;;;;;1.70;1.10;;;;;;;;;;5044042;28;20038;-80
2024/01/19 13:42:45;;;;;;;1.23;0.80;;;;;;;;;;5057718;28;20021;-80
2024/01/19 13:45:11;;;;;;;3.05;0.50;;;;;;;;;;5043107;28;20037;-81
2024/01/19 13:47:37;;;;;;;0.40;0.40;;;;;;;;;;5057350;28;20550;-82
2024/01/19 13:50:04;;;;;;;0.65;0.65;;;;;;;;;;5055478;28;20025;-82
2024/01/19 13:52:30;;;;;;;0.95;0.60;;;;;;;;;;5053272;28;20025;-79
2024/01/19 13:54:56;;;;;;;1.10;0.60;;;;;;;;;;5056760;28;20517;-79
2024/01/19 13:57:21;;;;;;;0.35;0.35;;;;;;;;;;5058936;28;20379;-83
2024/01/19 13:59:46;;;;;;;1.27;0.30;;;;;;;;;;5057808;28;20028;-81
2024/01/19 14:02:14;;;;;;;2.17;0.57;;;;;;;;;;5055213;28;20033;-79
2024/01/19 14:04:39;;;;;;;1.85;1.25;;;;;;;;;;5059334;28;20505;-76
2024/01/19 14:07:07;;;;;;;0.25;0.20;;;;;;;;;;5036709;28;20089;-76
2024/01/19 14:09:35;;;;;;;0.57;0.45;;;;;;;;;;5052620;28;20024;-83
2024/01/19 14:12:00;;;;;;;0.47;0.30;;;;;;;;;;5031627;28;20476;-79
2024/01/19 14:14:27;;;;;;;4.03;1.58;;;;;;;;;;5050462;28;20029;-81
2024/01/19 14:16:52;;;;;;;0.40;0.40;;;;;;;;;;5035536;28;20021;-81
2024/01/19 14:19:18;;;;;;;1.85;0.60;;;;;;;;;;5049319;28;20530;-81
2024/01/19 14:21:43;;;;;;;0.65;0.47;;;;;;;;;;5048038;28;20099;-78
2024/01/19 14:24:08;;;;;;;1.55;0.93;;;;;;;;;;5037193;28;20024;-81
2024/01/19 14:26:34;;;;;;;0.30;0.30;;;;;;;;;;5038669;28;20086;-80
2024/01/19 14:29:00;;;;;;;1.02;0.20;;;;;;;;;;5052188;28;20208;-80
2024/01/19 14:31:25;;;;;;;1.55;0.50;;;;;;;;;;5056519;28;20779;-79
2024/01/19 14:33:50;;;;;;;0.20;0.20;;;;;;;;;;5060539;28;20020;-83
2024/01/19 14:36:16;;;;;;;0.65;0.55;;;;;;;;;;5039233;28;20032;-77
2024/01/19 14:38:42;;;;;;;0.30;0.22;;;;;;;;;;5039891;28;20409;-80
2024/01/19 14:41:07;;;;;;;1.25;0.75;;;;;;;;;;5035372;28;20033;-80
2024/01/19 14:43:34;;;;;;;2.00;0.73;;;;;;;;;;5042880;28;20062;-83
2024/01/19 14:45:59;;;;;;;1.77;1.08;;;;;;;;;;5060980;28;20021;-80
2024/01/19 14:48:25;;;;;;;0.65;0.50;;;;;;;;;;5060010;28;20036;-82
2024/01/19 14:50:50;;;;;;;2.10;0.85;;;;;;;;;;5035543;28;20025;-79
2024/01/19 14:53:16;;;;;;;5.13;0.85;;;;;;;;;;5064649;28;20020;-79
2024/01/19 14:55:41;;;;;;;0.47;0.47;;;;;;;;;;5056509;28;20032;-79
2024/01/19 14:58:07;;;;;;;1.27;0.82;;;;;;;;;;5061172;28;20093;-78
2024/01/19 15:00:33;;;;;;;0.70;0.60;;;;;;;;;;5061270;28;20031;-81
2024/01/19 15:02:58;;;;;;;0.70;0.50;;;;;;;;;;5036007;28;20043;-83
2024/01/19 15:05:24;;;;;;;2.15;1.15;;;;;;;;;;5045702;28;20159;-80
2024/01/19 15:07:50;;;;;;;0.85;0.40;;;;;;;;;;5059891;28;20445;-79
2024/01/19 15:10:15;;;;;;;0.30;0.30;;;;;;;;;;5057785;28;20392;-79
2024/01/19 15:12:41;;;;;;;3.03;0.63;;;;;;;;;;5044037;28;20579;-78
2024/01/19 15:15:10;;;;;;;5.20;0.60;;;;;;;;;;5059572;28;20025;-79